createdAt,value
2024-05-09T00:00:43.975Z,70.39
2024-05-09T00:04:07.785Z,71.66
2024-05-09T00:07:10.918Z,73.42
2024-05-09T00:10:22.350Z,73.28
2024-05-09T00:13:32.103Z,71.05
2024-05-09T00:16:34.684Z,69.67
2024-05-09T00:19:37.675Z,72.00
2024-05-09T00:22:40.285Z,70.64
2024-05-09T00:25:43.811Z,71.89
2024-05-09T00:28:46.734Z,74.13
2024-05-09T00:31:49.792Z,74.97
2024-05-09T00:34:52.578Z,75.27
2024-05-09T00:37:55.743Z,75.04
2024-05-09T00:40:58.278Z,75.68
2024-05-09T00:44:01.376Z,74.75
2024-05-09T00:47:04.310Z,75.74
2024-05-09T00:50:12.737Z,72.67
2024-05-09T00:53:19.074Z,73.53
2024-05-09T00:56:22.445Z,75.09
2024-05-09T00:59:25.309Z,74.91
2024-05-09T01:02:31.217Z,76.21
2024-05-09T01:05:35.028Z,74.99
2024-05-09T01:08:38.942Z,76.05
2024-05-09T01:11:41.996Z,75.87
2024-05-09T01:14:45.150Z,76.51
2024-05-09T01:17:48.018Z,77.77
2024-05-09T01:20:51.382Z,77.13
2024-05-09T01:23:53.982Z,78.93
2024-05-09T01:26:56.890Z,77.81
2024-05-09T01:29:59.463Z,77.90
2024-05-09T01:33:02.689Z,79.10
2024-05-09T01:36:05.693Z,80.44
2024-05-09T01:39:08.748Z,80.68
2024-05-09T01:42:11.297Z,78.93
2024-05-09T01:45:14.283Z,80.13
2024-05-09T01:48:16.975Z,79.85
2024-05-09T01:51:20.188Z,80.04
2024-05-09T01:54:22.720Z,80.99
2024-05-09T01:57:25.805Z,80.41
2024-05-09T02:00:37.781Z,80.25
2024-05-09T02:03:47.195Z,80.79
2024-05-09T02:06:49.910Z,80.52
2024-05-09T02:09:55.783Z,79.33
2024-05-09T02:12:58.296Z,80.79
2024-05-09T02:16:01.286Z,82.67
2024-05-09T02:19:04.049Z,82.88
2024-05-09T02:22:07.168Z,81.67
2024-05-09T02:25:09.737Z,81.40
2024-05-09T02:28:12.793Z,79.82
2024-05-09T02:31:15.436Z,80.79
2024-05-09T02:34:18.544Z,83.11
2024-05-09T02:37:21.206Z,83.01
2024-05-09T02:40:33.234Z,80.81
2024-05-09T02:43:39.737Z,77.81
2024-05-09T02:46:42.749Z,79.77
2024-05-09T02:49:45.418Z,79.30
2024-05-09T02:52:48.561Z,80.83
2024-05-09T02:55:51.307Z,80.45
2024-05-09T02:58:54.389Z,80.22
2024-05-09T03:01:57.217Z,79.56
2024-05-09T03:05:00.930Z,80.08
2024-05-09T03:08:03.703Z,80.10
2024-05-09T03:11:06.963Z,81.42
2024-05-09T03:14:09.538Z,81.77
2024-05-09T03:17:12.570Z,84.45
2024-05-09T03:20:23.203Z,83.39
2024-05-09T03:23:28.315Z,82.48
2024-05-09T03:26:30.949Z,79.96
2024-05-09T03:29:34.182Z,81.62
2024-05-09T03:32:37.028Z,81.71
2024-05-09T03:35:40.251Z,82.60
2024-05-09T03:38:42.952Z,81.48
2024-05-09T03:41:46.003Z,82.62
2024-05-09T03:44:48.585Z,83.56
2024-05-09T03:47:51.955Z,84.13
2024-05-09T03:50:55.005Z,84.98
2024-05-09T03:53:58.463Z,85.46
2024-05-09T03:57:01.992Z,86.96
2024-05-09T04:00:11.893Z,88.43
2024-05-09T04:03:20.545Z,87.35
2024-05-09T04:06:24.873Z,88.99
2024-05-09T04:09:27.447Z,88.28
2024-05-09T04:12:30.776Z,89.33
2024-05-09T04:15:33.583Z,89.33
2024-05-09T04:18:37.108Z,91.45
2024-05-09T04:21:39.857Z,93.09
2024-05-09T04:24:43.041Z,93.04
2024-05-09T04:27:45.655Z,93.10
2024-05-09T04:30:48.768Z,92.60
2024-05-09T04:33:51.714Z,93.69
2024-05-09T04:36:54.876Z,97.21
2024-05-09T04:39:58.064Z,98.15
2024-05-09T04:43:01.524Z,99.98
2024-05-09T04:46:04.484Z,99.95
2024-05-09T04:49:07.825Z,98.14
2024-05-09T04:52:10.609Z,100.00
2024-05-09T04:55:13.802Z,99.85
2024-05-09T04:58:16.575Z,100.00
2024-05-09T05:01:19.872Z,100.00
2024-05-09T05:04:22.640Z,100.00
2024-05-09T05:07:25.702Z,100.00
2024-05-09T05:10:34.012Z,100.00
2024-05-09T05:13:41.595Z,97.50
2024-05-09T05:16:44.534Z,96.12
2024-05-09T05:19:47.892Z,95.09
2024-05-09T05:22:50.775Z,96.88
2024-05-09T05:25:54.522Z,94.25
2024-05-09T05:28:57.422Z,86.46
2024-05-09T05:32:00.783Z,84.98
2024-05-09T05:35:03.822Z,85.80
2024-05-09T05:38:08.424Z,81.78
2024-05-09T05:41:11.068Z,82.32
2024-05-09T05:44:16.084Z,83.31
2024-05-09T05:47:19.028Z,76.32
2024-05-09T05:50:27.929Z,74.84
2024-05-09T05:53:37.866Z,75.31
2024-05-09T05:56:41.098Z,68.73
2024-05-09T05:59:43.936Z,66.21
2024-05-09T06:02:47.664Z,61.24
2024-05-09T06:05:50.569Z,58.20
2024-05-09T06:08:54.457Z,56.03
2024-05-09T06:11:57.412Z,54.98
2024-05-09T06:15:01.077Z,55.15
2024-05-09T06:18:06.817Z,51.33
2024-05-09T06:21:10.341Z,48.00
2024-05-09T06:24:13.358Z,49.38
2024-05-09T06:27:16.415Z,48.64
2024-05-09T06:30:26.269Z,45.82
2024-05-09T06:33:38.177Z,44.36
2024-05-09T06:36:41.679Z,43.52
2024-05-09T06:39:46.405Z,41.96
2024-05-09T06:42:49.016Z,41.19
2024-05-09T06:45:54.747Z,40.71
2024-05-09T06:48:59.402Z,39.44
2024-05-09T06:52:02.580Z,38.71
2024-05-09T06:55:05.544Z,38.30
2024-05-09T06:58:11.828Z,36.52
2024-05-09T07:01:14.579Z,37.35
2024-05-09T07:04:18.034Z,37.01
2024-05-09T07:07:20.768Z,36.18
2024-05-09T07:10:29.032Z,35.91
2024-05-09T07:13:36.913Z,35.56
2024-05-09T07:16:40.342Z,33.21
2024-05-09T07:19:43.077Z,33.78
2024-05-09T07:22:46.240Z,33.57
2024-05-09T07:25:48.940Z,34.36
2024-05-09T07:28:52.052Z,33.90
2024-05-09T07:31:55.418Z,33.46
2024-05-09T07:34:58.597Z,32.35
2024-05-09T07:38:01.314Z,32.56
2024-05-09T07:41:04.597Z,32.37
2024-05-09T07:44:07.264Z,32.27
2024-05-09T07:48:27.492Z,30.23
2024-05-09T07:52:23.240Z,31.48
2024-05-09T07:54:00.680Z,31.46
2024-05-09T07:57:04.358Z,30.21
2024-05-09T08:00:11.630Z,29.14
2024-05-09T08:03:14.553Z,29.06
2024-05-09T08:06:17.960Z,30.82
2024-05-09T08:09:22.455Z,31.01
2024-05-09T08:12:25.909Z,30.10
2024-05-09T08:15:28.637Z,29.31
2024-05-09T08:18:33.013Z,30.96
2024-05-09T08:21:35.836Z,30.26
2024-05-09T08:24:39.117Z,29.11
2024-05-09T08:27:42.813Z,31.20
2024-05-09T08:30:46.617Z,30.11
2024-05-09T08:33:51.849Z,31.23
2024-05-09T08:36:57.538Z,29.94
2024-05-09T08:40:00.477Z,27.42
2024-05-09T08:43:08.248Z,28.49
2024-05-09T08:46:13.712Z,28.59
2024-05-09T08:49:17.282Z,27.64
2024-05-09T08:52:20.010Z,27.23
2024-05-09T08:55:23.029Z,28.52
2024-05-09T08:58:26.332Z,28.63
2024-05-09T09:01:31.797Z,27.03
2024-05-09T09:04:39.003Z,26.36
2024-05-09T09:07:48.562Z,27.91
2024-05-09T09:10:54.439Z,27.89
2024-05-09T09:13:57.787Z,27.12
2024-05-09T09:17:00.814Z,29.70
2024-05-09T09:20:04.527Z,27.18
2024-05-09T09:23:09.149Z,26.51
2024-05-09T09:26:16.918Z,27.41
2024-05-09T09:29:21.029Z,28.34
2024-05-09T09:32:28.736Z,27.82
2024-05-09T09:35:31.475Z,26.88
2024-05-09T09:38:37.940Z,27.62
2024-05-09T09:41:44.600Z,27.67
2024-05-09T09:44:54.634Z,27.04
2024-05-09T09:48:05.792Z,26.26
2024-05-09T09:51:09.602Z,25.29
2024-05-09T09:54:13.708Z,26.57
2024-05-09T09:57:16.902Z,24.98
2024-05-09T10:00:27.052Z,26.49
2024-05-09T10:03:35.520Z,25.96
2024-05-09T10:06:43.120Z,24.30
2024-05-09T10:09:46.638Z,24.43
2024-05-09T10:13:13.493Z,24.73
2024-05-09T10:16:22.412Z,24.69
2024-05-09T10:19:28.764Z,23.12
2024-05-09T10:22:33.306Z,25.48
2024-05-09T10:25:36.816Z,27.07
2024-05-09T10:28:45.308Z,24.28
2024-05-09T10:31:48.578Z,24.20
2024-05-09T10:35:07.989Z,24.07
2024-05-09T10:38:10.875Z,24.51
2024-05-09T10:41:14.194Z,23.04
2024-05-09T10:44:23.920Z,25.12
2024-05-09T10:47:27.428Z,24.77
2024-05-09T10:50:34.094Z,24.70
2024-05-09T10:53:42.802Z,23.33
2024-05-09T10:56:45.636Z,22.76
2024-05-09T10:59:51.927Z,23.82
2024-05-09T11:02:54.833Z,24.67
2024-05-09T11:05:58.508Z,24.06
2024-05-09T11:09:01.310Z,24.20
2024-05-09T11:12:05.530Z,25.00
2024-05-09T11:15:08.532Z,24.84
2024-05-09T11:18:24.752Z,23.96
2024-05-09T11:21:28.664Z,24.24
2024-05-09T11:24:32.838Z,22.48
2024-05-09T11:27:36.412Z,23.33
2024-05-09T11:30:39.647Z,24.33
2024-05-09T11:33:49.227Z,24.61
2024-05-09T11:36:53.166Z,23.23
2024-05-09T11:39:56.392Z,23.97
2024-05-09T11:42:59.958Z,23.95
2024-05-09T11:46:03.817Z,22.71
2024-05-09T11:49:07.916Z,23.65
2024-05-09T11:52:10.819Z,22.55
2024-05-09T11:55:14.549Z,22.55
2024-05-09T11:58:18.744Z,24.36
2024-05-09T12:01:25.305Z,23.55
2024-05-09T12:04:29.892Z,23.76
2024-05-09T12:07:33.184Z,23.98
2024-05-09T12:10:36.896Z,23.21
2024-05-09T12:13:40.523Z,22.76
2024-05-09T12:16:43.363Z,22.57
2024-05-09T12:19:46.697Z,23.38
2024-05-09T12:22:49.522Z,23.82
2024-05-09T12:25:52.849Z,25.01
2024-05-09T12:28:55.706Z,25.72
2024-05-09T12:31:59.006Z,22.78
2024-05-09T12:35:01.895Z,24.08
2024-05-09T12:38:05.355Z,23.92
2024-05-09T12:41:09.297Z,25.37
2024-05-09T12:44:12.774Z,25.07
2024-05-09T12:47:15.746Z,26.49
2024-05-09T12:50:28.781Z,24.44
2024-05-09T12:53:36.241Z,23.48
2024-05-09T12:56:39.433Z,25.17
2024-05-09T12:59:42.807Z,24.74
2024-05-09T13:02:45.922Z,24.78
2024-05-09T13:05:50.129Z,24.25
2024-05-09T13:08:53.284Z,23.99
2024-05-09T13:11:56.067Z,25.19
2024-05-09T13:14:59.227Z,23.79
2024-05-09T13:18:03.497Z,25.24
2024-05-09T13:21:07.117Z,25.10
2024-05-09T13:24:09.645Z,23.49
2024-05-09T13:27:12.809Z,25.67
2024-05-09T13:30:25.402Z,24.04
2024-05-09T13:33:33.516Z,24.28
2024-05-09T13:36:36.455Z,24.84
2024-05-09T13:39:40.359Z,23.46
2024-05-09T13:42:43.928Z,24.84
2024-05-09T13:45:48.165Z,26.09
2024-05-09T13:48:51.069Z,24.39
2024-05-09T13:51:54.398Z,24.91
2024-05-09T13:54:57.111Z,24.38
2024-05-09T13:58:00.756Z,24.61
2024-05-09T14:01:03.691Z,24.71
2024-05-09T14:04:10.122Z,26.56
2024-05-09T14:07:13.245Z,25.60
2024-05-09T14:10:23.222Z,25.94
2024-05-09T14:13:31.475Z,25.70
2024-05-09T14:16:36.736Z,24.41
2024-05-09T14:19:39.478Z,25.76
2024-05-09T14:22:42.709Z,26.50
2024-05-09T14:25:48.184Z,24.89
2024-05-09T14:28:53.536Z,24.69
2024-05-09T14:31:56.290Z,25.00
2024-05-09T14:34:59.431Z,26.14
2024-05-09T14:38:02.324Z,24.86
2024-05-09T14:41:09.670Z,25.82
2024-05-09T14:44:13.021Z,25.66
2024-05-09T14:47:18.765Z,25.84
2024-05-09T14:50:28.080Z,25.66
2024-05-09T14:53:38.547Z,26.93
2024-05-09T14:56:41.711Z,26.02
2024-05-09T14:59:44.745Z,26.03
2024-05-09T15:02:48.049Z,26.07
2024-05-09T15:05:51.944Z,25.82
2024-05-09T15:08:57.733Z,25.89
2024-05-09T15:12:01.181Z,25.99
2024-05-09T15:15:04.808Z,26.52
2024-05-09T15:18:07.986Z,26.85
2024-05-09T15:21:10.857Z,26.51
2024-05-09T15:24:13.993Z,27.89
2024-05-09T15:27:17.549Z,28.10
2024-05-09T15:30:29.798Z,27.13
2024-05-09T15:33:34.994Z,27.51
2024-05-09T15:36:39.783Z,28.31
2024-05-09T15:39:43.669Z,27.98
2024-05-09T15:42:47.231Z,28.52
2024-05-09T15:45:49.961Z,28.01
2024-05-09T15:48:53.233Z,28.22
2024-05-09T15:51:56.044Z,27.32
2024-05-09T15:54:59.212Z,28.09
2024-05-09T15:58:02.801Z,27.63
2024-05-09T16:01:06.736Z,29.69
2024-05-09T16:04:12.445Z,29.47
2024-05-09T16:07:15.649Z,28.33
2024-05-09T16:10:23.151Z,27.30
2024-05-09T16:13:29.335Z,28.38
2024-05-09T16:16:32.388Z,27.79
2024-05-09T16:19:35.626Z,30.04
2024-05-09T16:22:38.300Z,28.83
2024-05-09T16:25:46.462Z,29.79
2024-05-09T16:28:49.270Z,29.51
2024-05-09T16:31:52.456Z,29.23
2024-05-09T16:34:55.258Z,28.94
2024-05-09T16:37:58.588Z,29.03
2024-05-09T16:41:01.418Z,28.59
2024-05-09T16:44:04.626Z,30.25
2024-05-09T16:47:08.261Z,30.22
2024-05-09T16:50:12.929Z,30.23
2024-05-09T16:53:19.561Z,30.32
2024-05-09T16:56:26.563Z,29.80
2024-05-09T16:59:29.218Z,30.37
2024-05-09T17:02:32.698Z,31.03
2024-05-09T17:05:36.213Z,31.02
2024-05-09T17:08:41.354Z,30.95
2024-05-09T17:11:44.020Z,31.68
2024-05-09T17:14:47.291Z,32.32
2024-05-09T17:17:50.149Z,32.32
2024-05-09T17:20:53.307Z,32.67
2024-05-09T17:23:56.159Z,32.68
2024-05-09T17:27:00.643Z,32.69
2024-05-09T17:30:06.173Z,33.58
2024-05-09T17:33:11.225Z,34.06
2024-05-09T17:36:16.420Z,34.13
2024-05-09T17:39:19.606Z,34.59
2024-05-09T17:42:22.163Z,34.76
2024-05-09T17:45:25.383Z,35.07
2024-05-09T17:48:28.247Z,35.01
2024-05-09T17:51:31.833Z,34.86
2024-05-09T17:54:34.748Z,35.33
2024-05-09T17:57:38.059Z,35.67
2024-05-09T18:00:42.426Z,35.70
2024-05-09T18:03:46.659Z,36.27
2024-05-09T18:06:49.618Z,37.10
2024-05-09T18:09:52.844Z,37.98
2024-05-09T18:12:55.638Z,37.80
2024-05-09T18:15:59.166Z,38.76
2024-05-09T18:19:01.963Z,39.79
2024-05-09T18:22:05.713Z,39.63
2024-05-09T18:25:08.852Z,39.84
2024-05-09T18:28:12.645Z,40.05
2024-05-09T18:31:16.027Z,40.70
2024-05-09T18:34:19.700Z,40.90
2024-05-09T18:37:23.675Z,41.31
2024-05-09T18:40:33.318Z,40.56
2024-05-09T18:43:44.968Z,40.99
2024-05-09T18:46:53.146Z,40.84
2024-05-09T18:49:56.758Z,41.39
2024-05-09T18:53:00.247Z,42.07
2024-05-09T18:56:04.891Z,41.44
2024-05-09T18:59:09.655Z,41.82
2024-05-09T19:02:13.657Z,42.80
2024-05-09T19:05:21.608Z,43.16
2024-05-09T19:08:25.791Z,43.06
2024-05-09T19:11:30.415Z,43.59
2024-05-09T19:14:33.998Z,44.33
2024-05-09T19:17:38.664Z,44.82
2024-05-09T19:20:42.938Z,45.55
2024-05-09T19:23:52.080Z,46.15
2024-05-09T19:26:58.640Z,47.60
2024-05-09T19:30:03.222Z,47.20
2024-05-09T19:33:11.927Z,47.56
2024-05-09T19:36:20.598Z,48.60
2024-05-09T19:39:26.826Z,49.20
2024-05-09T19:42:35.136Z,48.34
2024-05-09T19:45:40.588Z,48.80
2024-05-09T19:48:45.604Z,49.01
2024-05-09T19:51:50.042Z,49.76
2024-05-09T19:54:54.974Z,50.53
2024-05-09T19:57:58.942Z,51.00
2024-05-09T20:01:04.062Z,50.88
2024-05-09T20:04:08.061Z,50.55
2024-05-09T20:07:14.005Z,50.89
2024-05-09T20:10:23.731Z,51.21
2024-05-09T20:13:34.452Z,51.93
2024-05-09T20:16:38.854Z,52.79
2024-05-09T20:19:47.790Z,51.82
2024-05-09T20:22:51.940Z,52.52
2024-05-09T20:25:57.267Z,52.69
2024-05-09T20:29:04.545Z,53.85
2024-05-09T20:32:09.203Z,54.72
2024-05-09T20:35:12.823Z,55.80
2024-05-09T20:38:17.542Z,58.17
2024-05-09T20:41:21.076Z,56.03
2024-05-09T20:44:25.089Z,56.56
2024-05-09T20:47:28.258Z,56.74
2024-05-09T20:50:38.351Z,57.37
2024-05-09T20:53:44.089Z,58.15
2024-05-09T20:56:47.547Z,59.67
2024-05-09T20:59:50.374Z,61.63
2024-05-09T21:02:53.548Z,62.24
2024-05-09T21:05:56.493Z,61.01
2024-05-09T21:08:59.663Z,59.12
2024-05-09T21:12:02.480Z,58.91
2024-05-09T21:15:06.124Z,60.63
2024-05-09T21:18:09.051Z,61.02
2024-05-09T21:21:12.538Z,61.46
2024-05-09T21:24:15.274Z,63.04
2024-05-09T21:27:19.401Z,62.95
2024-05-09T21:30:32.481Z,64.34
2024-05-09T21:33:43.667Z,64.41
2024-05-09T21:36:46.452Z,65.04
2024-05-09T21:39:49.633Z,66.46
2024-05-09T21:42:52.266Z,65.04
2024-05-09T21:45:55.376Z,66.64
2024-05-09T21:48:58.443Z,66.98
2024-05-09T21:52:01.565Z,67.01
2024-05-09T21:55:04.327Z,67.32
2024-05-09T21:58:07.467Z,67.49
2024-05-09T22:01:10.749Z,68.53
2024-05-09T22:04:14.122Z,68.17
2024-05-09T22:07:17.086Z,69.02
2024-05-09T22:10:26.236Z,68.83
2024-05-09T22:13:33.735Z,70.08
2024-05-09T22:16:41.140Z,72.64
2024-05-09T22:19:47.503Z,71.94
2024-05-09T22:22:50.814Z,74.38
2024-05-09T22:25:53.549Z,74.00
2024-05-09T22:28:56.580Z,73.51
2024-05-09T22:31:59.386Z,72.28
2024-05-09T22:35:02.834Z,71.84
2024-05-09T22:38:05.883Z,72.61
2024-05-09T22:41:09.677Z,72.75
2024-05-09T22:44:12.333Z,74.11
2024-05-09T22:47:15.399Z,74.60
2024-05-09T22:50:26.341Z,73.03
2024-05-09T22:53:30.251Z,72.79
2024-05-09T22:56:32.947Z,74.08
2024-05-09T22:59:35.938Z,74.39
2024-05-09T23:02:38.619Z,74.50
2024-05-09T23:05:41.739Z,75.93
2024-05-09T23:08:44.387Z,75.96
2024-05-09T23:11:47.521Z,76.10
2024-05-09T23:14:50.174Z,76.65
2024-05-09T23:17:53.520Z,76.99
2024-05-09T23:20:56.251Z,77.46
2024-05-09T23:23:59.289Z,76.79
2024-05-09T23:27:02.015Z,77.91
2024-05-09T23:30:07.662Z,79.54
2024-05-09T23:33:13.899Z,81.29
2024-05-09T23:36:18.072Z,81.05
2024-05-09T23:39:20.651Z,81.84
2024-05-09T23:42:23.658Z,79.34
2024-05-09T23:45:26.264Z,78.49
2024-05-09T23:48:29.453Z,79.31
2024-05-09T23:51:32.122Z,79.76
2024-05-09T23:54:35.415Z,78.93
2024-05-09T23:57:38.304Z,79.67
